HAZ2811 ZSHC-ZBAD
Flight info
| Callsign | HAZ2811 |
|---|---|
| Flight time | 1h 38m |
| Altitude | 36100 |
| Route | NIVIK8D NIVIK W135 DOGVI A470 DPX A593 DALIM W157 AVBOX AVBOX9M |
| Aircraft | B77W/H-SDE1E2E3FGHIJ2J3J4J5M1RWXY/LB1D1 |
Departure
| Time | 2026-04-25 23:47 |
|---|---|
| Airport | Hangzhou Xiaoshan International Airport (ZSHC) |
Arrival
| Time | 2026-04-26 01:26 |
|---|---|
| Airport | Beijing Daxing International Airport (ZBAD) |
| Time | Latitude | Longitude | Altitude | Speed | Heading |
|---|---|---|---|---|---|
| 2026-04-25 23:34 | 30.24127 | 120.42631 | 35 ft | 0 kts | 143° |
| 2026-04-25 23:37 | 30.24132 | 120.42627 | 35 ft | 2 kts | 143° |
| 2026-04-25 23:37 | 30.24144 | 120.42616 | 35 ft | 2 kts | 143° |
| 2026-04-25 23:38 | 30.24156 | 120.42606 | 35 ft | 2 kts | 143° |
| 2026-04-25 23:38 | 30.24163 | 120.42600 | 35 ft | 2 kts | 142° |
| 2026-04-25 23:38 | 30.24175 | 120.42587 | 35 ft | 2 kts | 125° |
| 2026-04-25 23:38 | 30.24182 | 120.42572 | 35 ft | 2 kts | 108° |
| 2026-04-25 23:39 | 30.24185 | 120.42555 | 35 ft | 2 kts | 94° |
| 2026-04-25 23:39 | 30.24185 | 120.42539 | 35 ft | 2 kts | 79° |
| 2026-04-25 23:39 | 30.24181 | 120.42522 | 35 ft | 1 kts | 64° |
| 2026-04-25 23:39 | 30.24178 | 120.42516 | 35 ft | 0 kts | 62° |
| 2026-04-25 23:40 | 30.24178 | 120.42517 | 35 ft | 0 kts | 62° |
| 2026-04-25 23:41 | 30.24179 | 120.42518 | 35 ft | 2 kts | 62° |
| 2026-04-25 23:42 | 30.24206 | 120.42580 | 35 ft | 11 kts | 64° |
| 2026-04-25 23:42 | 30.24242 | 120.42663 | 35 ft | 11 kts | 63° |
| 2026-04-25 23:42 | 30.24285 | 120.42760 | 35 ft | 16 kts | 62° |
| 2026-04-25 23:42 | 30.24379 | 120.42783 | 35 ft | 19 kts | 332° |
| 2026-04-25 23:43 | 30.24491 | 120.42783 | 35 ft | 19 kts | 58° |
| 2026-04-25 23:43 | 30.24561 | 120.42935 | 35 ft | 26 kts | 63° |
| 2026-04-25 23:43 | 30.24646 | 120.43129 | 35 ft | 26 kts | 63° |
| 2026-04-25 23:43 | 30.24727 | 120.43311 | 35 ft | 24 kts | 63° |
| 2026-04-25 23:44 | 30.24802 | 120.43483 | 35 ft | 23 kts | 63° |
| 2026-04-25 23:44 | 30.24873 | 120.43642 | 35 ft | 21 kts | 63° |
| 2026-04-25 23:44 | 30.24938 | 120.43790 | 35 ft | 20 kts | 63° |
| 2026-04-25 23:44 | 30.25000 | 120.43929 | 35 ft | 19 kts | 63° |
| 2026-04-25 23:45 | 30.25072 | 120.44037 | 35 ft | 14 kts | 358° |
| 2026-04-25 23:45 | 30.25164 | 120.43990 | 35 ft | 14 kts | 333° |
| 2026-04-25 23:45 | 30.25187 | 120.43913 | 35 ft | 9 kts | 241° |
| 2026-04-25 23:45 | 30.25182 | 120.43901 | 35 ft | 0 kts | 242° |
| 2026-04-25 23:47 | 30.25141 | 120.43811 | 35 ft | 40 kts | 242° |
| 2026-04-25 23:47 | 30.24871 | 120.43203 | 35 ft | 126 kts | 243° |
| 2026-04-25 23:47 | 30.24367 | 120.42055 | 186 ft | 184 kts | 242° |
| 2026-04-25 23:47 | 30.23767 | 120.40711 | 1035 ft | 197 kts | 242° |
| 2026-04-25 23:48 | 30.23145 | 120.39339 | 2027 ft | 195 kts | 243° |
| 2026-04-25 23:48 | 30.22511 | 120.37894 | 2554 ft | 211 kts | 243° |
| 2026-04-25 23:48 | 30.21824 | 120.36338 | 3119 ft | 226 kts | 244° |
| 2026-04-25 23:48 | 30.21083 | 120.34669 | 3737 ft | 242 kts | 244° |
| 2026-04-25 23:49 | 30.20292 | 120.32889 | 4389 ft | 257 kts | 244° |
| 2026-04-25 23:49 | 30.19472 | 120.31047 | 5264 ft | 261 kts | 245° |
| 2026-04-25 23:49 | 30.18630 | 120.29155 | 6116 ft | 267 kts | 245° |
| 2026-04-25 23:49 | 30.17778 | 120.27241 | 6955 ft | 272 kts | 245° |
| 2026-04-25 23:50 | 30.16907 | 120.25288 | 7811 ft | 277 kts | 245° |
| 2026-04-25 23:50 | 30.16055 | 120.23318 | 8620 ft | 280 kts | 251° |
| 2026-04-25 23:50 | 30.15703 | 120.21133 | 9354 ft | 280 kts | 275° |
| 2026-04-25 23:50 | 30.16165 | 120.18965 | 10141 ft | 279 kts | 298° |
| 2026-04-25 23:51 | 30.17344 | 120.17172 | 10668 ft | 291 kts | 320° |
| 2026-04-25 23:51 | 30.19097 | 120.15866 | 11120 ft | 308 kts | 331° |
| 2026-04-25 23:51 | 30.21047 | 120.14671 | 11652 ft | 324 kts | 332° |
| 2026-04-25 23:51 | 30.23055 | 120.13435 | 12224 ft | 338 kts | 331° |
| 2026-04-25 23:52 | 30.25190 | 120.12102 | 12786 ft | 353 kts | 331° |
| 2026-04-25 23:52 | 30.27384 | 120.10720 | 13399 ft | 367 kts | 331° |
| 2026-04-25 23:52 | 30.29663 | 120.09283 | 14195 ft | 375 kts | 331° |
| 2026-04-25 23:52 | 30.31934 | 120.07848 | 15261 ft | 375 kts | 331° |
| 2026-04-25 23:53 | 30.34229 | 120.06398 | 16300 ft | 376 kts | 331° |
| 2026-04-25 23:53 | 30.36534 | 120.04941 | 17182 ft | 381 kts | 331° |
| 2026-04-25 23:53 | 30.38843 | 120.03480 | 18017 ft | 386 kts | 331° |
| 2026-04-25 23:53 | 30.41203 | 120.01985 | 18873 ft | 390 kts | 331° |
| 2026-04-25 23:54 | 30.43598 | 120.00469 | 19812 ft | 392 kts | 331° |
| 2026-04-25 23:54 | 30.46001 | 119.98947 | 20720 ft | 394 kts | 331° |
| 2026-04-25 23:54 | 30.48419 | 119.97417 | 21516 ft | 398 kts | 331° |
| 2026-04-25 23:54 | 30.50871 | 119.95863 | 22279 ft | 402 kts | 330° |
| 2026-04-25 23:55 | 30.53330 | 119.94305 | 23027 ft | 406 kts | 330° |
| 2026-04-25 23:55 | 30.55800 | 119.92738 | 23836 ft | 407 kts | 330° |
| 2026-04-25 23:55 | 30.58319 | 119.91176 | 24553 ft | 411 kts | 333° |
| 2026-04-25 23:55 | 30.60974 | 119.89954 | 25157 ft | 418 kts | 341° |
| 2026-04-25 23:56 | 30.63859 | 119.89172 | 25812 ft | 425 kts | 349° |
| 2026-04-25 23:56 | 30.66817 | 119.88868 | 26509 ft | 429 kts | 354° |
| 2026-04-25 23:56 | 30.69818 | 119.88496 | 27260 ft | 430 kts | 348° |
| 2026-04-25 23:56 | 30.72742 | 119.87750 | 27922 ft | 432 kts | 343° |
| 2026-04-25 23:57 | 30.75624 | 119.86686 | 28524 ft | 436 kts | 339° |
| 2026-04-25 23:57 | 30.78423 | 119.85383 | 29177 ft | 439 kts | 335° |
| 2026-04-25 23:57 | 30.81200 | 119.83868 | 29930 ft | 440 kts | 333° |
| 2026-04-25 23:57 | 30.83913 | 119.82208 | 30838 ft | 437 kts | 331° |
| 2026-04-25 23:58 | 30.86539 | 119.80539 | 32037 ft | 426 kts | 330° |
| 2026-04-25 23:58 | 30.89053 | 119.78848 | 33207 ft | 415 kts | 329° |
| 2026-04-25 23:58 | 30.91489 | 119.77101 | 34150 ft | 408 kts | 328° |
| 2026-04-25 23:58 | 30.93852 | 119.75316 | 34762 ft | 407 kts | 327° |
| 2026-04-25 23:59 | 30.96185 | 119.73479 | 35191 ft | 409 kts | 326° |
| 2026-04-25 23:59 | 30.98543 | 119.71570 | 35662 ft | 410 kts | 325° |
| 2026-04-25 23:59 | 31.00901 | 119.69622 | 36068 ft | 411 kts | 324° |
| 2026-04-26 00:00 | 31.05546 | 119.65713 | 36100 ft | 407 kts | 324° |
| 2026-04-26 00:00 | 31.10014 | 119.61898 | 36095 ft | 407 kts | 324° |
| 2026-04-26 00:01 | 31.14660 | 119.57902 | 36110 ft | 408 kts | 324° |
| 2026-04-26 00:01 | 31.19257 | 119.53929 | 36116 ft | 407 kts | 323° |
| 2026-04-26 00:02 | 31.23825 | 119.49972 | 36123 ft | 408 kts | 323° |
| 2026-04-26 00:02 | 31.28405 | 119.45997 | 36118 ft | 407 kts | 323° |
| 2026-04-26 00:03 | 31.32987 | 119.42013 | 36117 ft | 408 kts | 323° |
| 2026-04-26 00:03 | 31.37542 | 119.38048 | 36113 ft | 408 kts | 323° |
| 2026-04-26 00:04 | 31.42123 | 119.34055 | 36123 ft | 408 kts | 323° |
| 2026-04-26 00:04 | 31.46688 | 119.30069 | 36121 ft | 408 kts | 323° |
| 2026-04-26 00:05 | 31.51232 | 119.26098 | 36120 ft | 408 kts | 323° |
| 2026-04-26 00:05 | 31.55788 | 119.22114 | 35857 ft | 407 kts | 323° |
| 2026-04-26 00:05 | 31.58054 | 119.20115 | 36287 ft | 412 kts | 322° |
| 2026-04-26 00:06 | 31.60333 | 119.18093 | 35884 ft | 410 kts | 322° |
| 2026-04-26 00:06 | 31.62530 | 119.16142 | 36083 ft | 408 kts | 322° |
| 2026-04-26 00:06 | 31.64823 | 119.14105 | 36110 ft | 412 kts | 322° |
| 2026-04-26 00:07 | 31.69145 | 119.09710 | 36111 ft | 409 kts | 319° |
| 2026-04-26 00:07 | 31.73390 | 119.05315 | 36107 ft | 409 kts | 319° |
| 2026-04-26 00:08 | 31.77697 | 119.00880 | 36107 ft | 408 kts | 319° |
| 2026-04-26 00:08 | 31.82143 | 118.96791 | 36105 ft | 408 kts | 328° |
| 2026-04-26 00:09 | 31.87363 | 118.93980 | 36104 ft | 412 kts | 337° |
| 2026-04-26 00:09 | 31.92691 | 118.91606 | 36097 ft | 412 kts | 337° |
| 2026-04-26 00:10 | 31.98111 | 118.89180 | 36103 ft | 412 kts | 337° |
| 2026-04-26 00:10 | 32.03487 | 118.86768 | 36097 ft | 413 kts | 336° |
| 2026-04-26 00:11 | 32.08855 | 118.84353 | 36100 ft | 413 kts | 336° |
| 2026-04-26 00:11 | 32.14239 | 118.81928 | 36107 ft | 412 kts | 337° |
| 2026-04-26 00:12 | 32.19591 | 118.79514 | 36107 ft | 412 kts | 336° |
| 2026-04-26 00:12 | 32.25028 | 118.77057 | 36102 ft | 413 kts | 336° |
| 2026-04-26 00:13 | 32.30427 | 118.74614 | 36102 ft | 413 kts | 336° |
| 2026-04-26 00:13 | 32.35824 | 118.72169 | 36100 ft | 413 kts | 336° |
| 2026-04-26 00:14 | 32.41230 | 118.69717 | 36096 ft | 413 kts | 336° |
| 2026-04-26 00:14 | 32.46625 | 118.67267 | 36099 ft | 413 kts | 336° |
| 2026-04-26 00:15 | 32.52058 | 118.64796 | 36100 ft | 413 kts | 336° |
| 2026-04-26 00:15 | 32.57448 | 118.62342 | 36099 ft | 414 kts | 336° |
| 2026-04-26 00:16 | 32.62860 | 118.59875 | 36097 ft | 414 kts | 336° |
| 2026-04-26 00:16 | 32.68265 | 118.57414 | 36089 ft | 414 kts | 338° |
| 2026-04-26 00:17 | 32.73841 | 118.55430 | 36095 ft | 415 kts | 340° |
| 2026-04-26 00:17 | 32.79416 | 118.53482 | 36095 ft | 415 kts | 340° |
| 2026-04-26 00:18 | 32.84981 | 118.51514 | 36094 ft | 416 kts | 340° |
| 2026-04-26 00:18 | 32.90543 | 118.49535 | 36091 ft | 416 kts | 340° |
| 2026-04-26 00:19 | 32.96133 | 118.47537 | 36085 ft | 416 kts | 340° |
| 2026-04-26 00:19 | 33.01666 | 118.45555 | 36086 ft | 416 kts | 340° |
| 2026-04-26 00:20 | 33.07228 | 118.43558 | 36082 ft | 415 kts | 340° |
| 2026-04-26 00:20 | 33.12758 | 118.41569 | 36094 ft | 417 kts | 340° |
| 2026-04-26 00:21 | 33.18305 | 118.39571 | 36093 ft | 416 kts | 340° |
| 2026-04-26 00:21 | 33.23873 | 118.37564 | 36092 ft | 416 kts | 340° |
| 2026-04-26 00:22 | 33.29429 | 118.35564 | 36090 ft | 417 kts | 340° |
| 2026-04-26 00:22 | 33.34997 | 118.33557 | 36099 ft | 416 kts | 339° |
| 2026-04-26 00:23 | 33.40530 | 118.31560 | 36098 ft | 417 kts | 339° |
| 2026-04-26 00:23 | 33.46112 | 118.29542 | 36097 ft | 417 kts | 339° |
| 2026-04-26 00:24 | 33.51676 | 118.27528 | 36094 ft | 416 kts | 339° |
| 2026-04-26 00:24 | 33.57231 | 118.25515 | 36093 ft | 417 kts | 339° |
| 2026-04-26 00:25 | 33.62783 | 118.23499 | 36093 ft | 416 kts | 339° |
| 2026-04-26 00:25 | 33.68336 | 118.21481 | 36092 ft | 417 kts | 339° |
| 2026-04-26 00:26 | 33.73921 | 118.19449 | 36087 ft | 417 kts | 339° |
| 2026-04-26 00:26 | 33.76707 | 118.18433 | 36376 ft | 418 kts | 339° |
| 2026-04-26 00:26 | 33.79472 | 118.17426 | 36104 ft | 417 kts | 339° |
| 2026-04-26 00:27 | 33.84995 | 118.15416 | 36076 ft | 416 kts | 339° |
| 2026-04-26 00:27 | 33.90572 | 118.13390 | 36069 ft | 417 kts | 339° |
| 2026-04-26 00:28 | 33.96104 | 118.11377 | 36070 ft | 416 kts | 339° |
| 2026-04-26 00:28 | 34.01662 | 118.09351 | 36065 ft | 417 kts | 339° |
| 2026-04-26 00:29 | 34.07222 | 118.07333 | 36067 ft | 418 kts | 339° |
| 2026-04-26 00:29 | 34.12720 | 118.05338 | 36075 ft | 417 kts | 339° |
| 2026-04-26 00:30 | 34.18282 | 118.03313 | 36070 ft | 418 kts | 339° |
| 2026-04-26 00:30 | 34.23848 | 118.01286 | 36071 ft | 417 kts | 339° |
| 2026-04-26 00:31 | 34.29390 | 117.99270 | 36069 ft | 418 kts | 339° |
| 2026-04-26 00:31 | 34.34936 | 117.97297 | 36071 ft | 418 kts | 339° |
| 2026-04-26 00:32 | 34.40558 | 117.95293 | 36066 ft | 418 kts | 339° |
| 2026-04-26 00:32 | 34.48884 | 117.92320 | 36064 ft | 417 kts | 339° |
| 2026-04-26 00:33 | 34.54463 | 117.90323 | 36065 ft | 418 kts | 339° |
| 2026-04-26 00:33 | 34.60030 | 117.88327 | 36066 ft | 419 kts | 339° |
| 2026-04-26 00:34 | 34.65646 | 117.86311 | 36064 ft | 418 kts | 339° |
| 2026-04-26 00:34 | 34.71230 | 117.84303 | 36062 ft | 419 kts | 339° |
| 2026-04-26 00:35 | 34.76825 | 117.82288 | 36059 ft | 419 kts | 339° |
| 2026-04-26 00:35 | 34.82429 | 117.80268 | 36060 ft | 419 kts | 339° |
| 2026-04-26 00:36 | 34.88015 | 117.78221 | 36059 ft | 419 kts | 339° |
| 2026-04-26 00:36 | 34.93580 | 117.76186 | 36059 ft | 419 kts | 339° |
| 2026-04-26 00:37 | 34.99162 | 117.74143 | 36060 ft | 419 kts | 339° |
| 2026-04-26 00:37 | 35.04762 | 117.72091 | 36055 ft | 418 kts | 339° |
| 2026-04-26 00:38 | 35.10339 | 117.70046 | 36060 ft | 421 kts | 339° |
| 2026-04-26 00:38 | 35.15971 | 117.67980 | 36070 ft | 419 kts | 339° |
| 2026-04-26 00:39 | 35.21573 | 117.65923 | 36073 ft | 420 kts | 339° |
| 2026-04-26 00:39 | 35.27204 | 117.63851 | 36064 ft | 421 kts | 339° |
| 2026-04-26 00:40 | 35.32798 | 117.61790 | 36065 ft | 422 kts | 339° |
| 2026-04-26 00:40 | 35.38392 | 117.59727 | 36063 ft | 421 kts | 339° |
| 2026-04-26 00:41 | 35.44016 | 117.57649 | 36059 ft | 421 kts | 339° |
| 2026-04-26 00:41 | 35.49646 | 117.55566 | 36057 ft | 420 kts | 339° |
| 2026-04-26 00:42 | 35.55226 | 117.53498 | 36052 ft | 422 kts | 339° |
| 2026-04-26 00:42 | 35.60834 | 117.51417 | 36058 ft | 421 kts | 339° |
| 2026-04-26 00:43 | 35.66453 | 117.49329 | 36042 ft | 422 kts | 339° |
| 2026-04-26 00:43 | 35.72060 | 117.47243 | 36038 ft | 422 kts | 339° |
| 2026-04-26 00:44 | 35.77684 | 117.45147 | 36033 ft | 420 kts | 339° |
| 2026-04-26 00:44 | 35.83271 | 117.43060 | 36035 ft | 423 kts | 339° |
| 2026-04-26 00:45 | 35.88908 | 117.40954 | 36029 ft | 422 kts | 339° |
| 2026-04-26 00:45 | 35.94540 | 117.38845 | 36024 ft | 422 kts | 339° |
| 2026-04-26 00:46 | 36.00153 | 117.36740 | 36022 ft | 423 kts | 339° |
| 2026-04-26 00:46 | 36.05729 | 117.34679 | 36022 ft | 423 kts | 338° |
| 2026-04-26 00:47 | 36.11379 | 117.32593 | 36033 ft | 423 kts | 338° |
| 2026-04-26 00:47 | 36.16357 | 117.30751 | 36027 ft | 423 kts | 339° |
| 2026-04-26 00:48 | 36.22013 | 117.28655 | 36032 ft | 422 kts | 338° |
| 2026-04-26 00:48 | 36.27647 | 117.26564 | 36031 ft | 423 kts | 339° |
| 2026-04-26 00:49 | 36.33261 | 117.24477 | 36029 ft | 424 kts | 338° |
| 2026-04-26 00:49 | 36.38920 | 117.22369 | 36028 ft | 424 kts | 338° |
| 2026-04-26 00:50 | 36.44441 | 117.19936 | 36038 ft | 419 kts | 333° |
| 2026-04-26 00:50 | 36.49865 | 117.17114 | 36034 ft | 420 kts | 333° |
| 2026-04-26 00:51 | 36.55152 | 117.14361 | 36022 ft | 422 kts | 333° |
| 2026-04-26 00:51 | 36.60556 | 117.11546 | 36017 ft | 420 kts | 333° |
| 2026-04-26 00:52 | 36.65959 | 117.08727 | 36014 ft | 422 kts | 333° |
| 2026-04-26 00:52 | 36.71378 | 117.05896 | 36007 ft | 419 kts | 333° |
| 2026-04-26 00:53 | 36.76761 | 117.03078 | 36003 ft | 423 kts | 333° |
| 2026-04-26 00:53 | 36.82158 | 117.00251 | 35997 ft | 420 kts | 333° |
| 2026-04-26 00:54 | 36.87552 | 116.97420 | 35989 ft | 422 kts | 333° |
| 2026-04-26 00:54 | 36.92948 | 116.94584 | 35984 ft | 422 kts | 333° |
| 2026-04-26 00:55 | 36.98344 | 116.91743 | 35991 ft | 422 kts | 333° |
| 2026-04-26 00:55 | 37.03755 | 116.88891 | 35981 ft | 421 kts | 333° |
| 2026-04-26 00:56 | 37.09186 | 116.86023 | 35977 ft | 422 kts | 333° |
| 2026-04-26 00:56 | 37.14388 | 116.83272 | 35837 ft | 420 kts | 333° |
| 2026-04-26 00:57 | 37.17105 | 116.81834 | 35968 ft | 425 kts | 333° |
| 2026-04-26 00:57 | 37.19807 | 116.80402 | 35983 ft | 424 kts | 333° |
| 2026-04-26 00:57 | 37.25436 | 116.77975 | 35983 ft | 428 kts | 339° |
| 2026-04-26 00:58 | 37.31115 | 116.75842 | 35979 ft | 426 kts | 338° |
| 2026-04-26 00:58 | 37.36816 | 116.73692 | 35980 ft | 427 kts | 339° |
| 2026-04-26 00:59 | 37.42529 | 116.71533 | 35974 ft | 427 kts | 338° |
| 2026-04-26 00:59 | 37.48218 | 116.69377 | 35970 ft | 429 kts | 338° |
| 2026-04-26 01:00 | 37.53960 | 116.67198 | 35965 ft | 428 kts | 338° |
| 2026-04-26 01:00 | 37.59643 | 116.65036 | 35968 ft | 430 kts | 338° |
| 2026-04-26 01:01 | 37.65400 | 116.62845 | 35975 ft | 428 kts | 338° |
| 2026-04-26 01:01 | 37.71107 | 116.60667 | 35960 ft | 426 kts | 338° |
| 2026-04-26 01:02 | 37.73901 | 116.59602 | 35563 ft | 421 kts | 338° |
| 2026-04-26 01:02 | 37.76696 | 116.58532 | 34871 ft | 424 kts | 338° |
| 2026-04-26 01:02 | 37.79541 | 116.57443 | 34062 ft | 426 kts | 338° |
| 2026-04-26 01:02 | 37.82349 | 116.56367 | 33231 ft | 428 kts | 338° |
| 2026-04-26 01:03 | 37.85189 | 116.55278 | 32457 ft | 428 kts | 339° |
| 2026-04-26 01:03 | 37.88093 | 116.54162 | 31658 ft | 441 kts | 339° |
| 2026-04-26 01:03 | 37.91035 | 116.53029 | 30847 ft | 453 kts | 339° |
| 2026-04-26 01:03 | 37.94044 | 116.51872 | 30268 ft | 450 kts | 338° |
| 2026-04-26 01:04 | 37.96938 | 116.50452 | 29839 ft | 439 kts | 331° |
| 2026-04-26 01:04 | 37.99558 | 116.48572 | 29364 ft | 431 kts | 323° |
| 2026-04-26 01:04 | 38.02000 | 116.46389 | 28852 ft | 428 kts | 321° |
| 2026-04-26 01:04 | 38.04387 | 116.44207 | 28352 ft | 425 kts | 321° |
| 2026-04-26 01:05 | 38.06784 | 116.42011 | 27848 ft | 421 kts | 321° |
| 2026-04-26 01:05 | 38.09147 | 116.39844 | 27321 ft | 417 kts | 321° |
| 2026-04-26 01:05 | 38.11485 | 116.37698 | 26812 ft | 413 kts | 321° |
| 2026-04-26 01:05 | 38.13815 | 116.35558 | 26293 ft | 410 kts | 321° |
| 2026-04-26 01:06 | 38.16122 | 116.33437 | 25774 ft | 408 kts | 321° |
| 2026-04-26 01:06 | 38.18409 | 116.31334 | 25252 ft | 405 kts | 321° |
| 2026-04-26 01:06 | 38.20760 | 116.29317 | 24714 ft | 405 kts | 326° |
| 2026-04-26 01:06 | 38.23210 | 116.27827 | 24180 ft | 406 kts | 335° |
| 2026-04-26 01:07 | 38.25935 | 116.26811 | 23646 ft | 408 kts | 343° |
| 2026-04-26 01:07 | 38.28753 | 116.26372 | 23089 ft | 410 kts | 353° |
| 2026-04-26 01:07 | 38.31605 | 116.26526 | 22539 ft | 413 kts | 2° |
| 2026-04-26 01:07 | 38.34430 | 116.27261 | 21982 ft | 415 kts | 10° |
| 2026-04-26 01:08 | 38.37185 | 116.28217 | 21401 ft | 413 kts | 11° |
| 2026-04-26 01:08 | 38.39934 | 116.29182 | 20818 ft | 409 kts | 11° |
| 2026-04-26 01:08 | 38.42661 | 116.30135 | 20250 ft | 405 kts | 11° |
| 2026-04-26 01:08 | 38.45369 | 116.31078 | 19679 ft | 402 kts | 11° |
| 2026-04-26 01:09 | 38.48048 | 116.32008 | 19110 ft | 398 kts | 12° |
| 2026-04-26 01:09 | 38.50732 | 116.32939 | 18537 ft | 394 kts | 12° |
| 2026-04-26 01:09 | 38.53331 | 116.33839 | 17969 ft | 391 kts | 12° |
| 2026-04-26 01:09 | 38.55960 | 116.34750 | 17395 ft | 388 kts | 12° |
| 2026-04-26 01:10 | 38.58557 | 116.35650 | 16833 ft | 384 kts | 12° |
| 2026-04-26 01:10 | 38.61108 | 116.36533 | 16272 ft | 381 kts | 12° |
| 2026-04-26 01:10 | 38.63644 | 116.37499 | 15711 ft | 380 kts | 18° |
| 2026-04-26 01:10 | 38.66013 | 116.38997 | 15151 ft | 381 kts | 28° |
| 2026-04-26 01:11 | 38.68202 | 116.40898 | 14582 ft | 379 kts | 32° |
| 2026-04-26 01:11 | 38.70372 | 116.42856 | 13991 ft | 378 kts | 32° |
| 2026-04-26 01:11 | 38.72504 | 116.44785 | 13414 ft | 376 kts | 32° |
| 2026-04-26 01:11 | 38.74619 | 116.46699 | 12851 ft | 373 kts | 32° |
| 2026-04-26 01:12 | 38.76720 | 116.48602 | 12298 ft | 371 kts | 32° |
| 2026-04-26 01:12 | 38.78830 | 116.50515 | 11732 ft | 369 kts | 32° |
| 2026-04-26 01:12 | 38.80915 | 116.52406 | 11174 ft | 367 kts | 32° |
| 2026-04-26 01:12 | 38.82991 | 116.54290 | 10648 ft | 364 kts | 32° |
| 2026-04-26 01:13 | 38.85022 | 116.56136 | 10521 ft | 349 kts | 32° |
| 2026-04-26 01:13 | 38.86957 | 116.57897 | 10440 ft | 334 kts | 32° |
| 2026-04-26 01:13 | 38.88831 | 116.59603 | 10315 ft | 322 kts | 32° |
| 2026-04-26 01:13 | 38.90603 | 116.61215 | 10175 ft | 311 kts | 32° |
| 2026-04-26 01:14 | 38.92347 | 116.62803 | 10032 ft | 301 kts | 32° |
| 2026-04-26 01:14 | 38.94028 | 116.64335 | 9886 ft | 292 kts | 32° |
| 2026-04-26 01:14 | 38.95490 | 116.65667 | 9574 ft | 292 kts | 33° |
| 2026-04-26 01:14 | 38.97150 | 116.67180 | 9174 ft | 293 kts | 33° |
| 2026-04-26 01:15 | 38.98804 | 116.68689 | 8780 ft | 292 kts | 33° |
| 2026-04-26 01:15 | 39.00462 | 116.70203 | 8298 ft | 291 kts | 33° |
| 2026-04-26 01:15 | 39.02107 | 116.71702 | 7946 ft | 284 kts | 32° |
| 2026-04-26 01:15 | 39.03840 | 116.72638 | 7896 ft | 266 kts | 7° |
| 2026-04-26 01:16 | 39.05680 | 116.72742 | 7904 ft | 262 kts | 357° |
| 2026-04-26 01:16 | 39.07484 | 116.72572 | 7884 ft | 261 kts | 354° |
| 2026-04-26 01:16 | 39.09288 | 116.72317 | 7751 ft | 260 kts | 352° |
| 2026-04-26 01:16 | 39.11031 | 116.71650 | 7128 ft | 271 kts | 330° |
| 2026-04-26 01:17 | 39.12432 | 116.69932 | 6364 ft | 286 kts | 306° |
| 2026-04-26 01:17 | 39.13395 | 116.67650 | 5631 ft | 292 kts | 300° |
| 2026-04-26 01:17 | 39.14276 | 116.65323 | 4894 ft | 291 kts | 300° |
| 2026-04-26 01:17 | 39.15099 | 116.62946 | 4159 ft | 298 kts | 292° |
| 2026-04-26 01:18 | 39.15376 | 116.60251 | 3581 ft | 302 kts | 274° |
| 2026-04-26 01:18 | 39.15366 | 116.57595 | 3348 ft | 289 kts | 273° |
| 2026-04-26 01:18 | 39.15333 | 116.55100 | 3412 ft | 275 kts | 273° |
| 2026-04-26 01:18 | 39.15289 | 116.52673 | 3395 ft | 264 kts | 273° |
| 2026-04-26 01:19 | 39.15233 | 116.50318 | 3395 ft | 260 kts | 273° |
| 2026-04-26 01:19 | 39.15451 | 116.48086 | 3380 ft | 249 kts | 298° |
| 2026-04-26 01:19 | 39.16424 | 116.46313 | 3459 ft | 239 kts | 320° |
| 2026-04-26 01:19 | 39.17738 | 116.45075 | 3471 ft | 232 kts | 341° |
| 2026-04-26 01:20 | 39.19262 | 116.44373 | 3486 ft | 229 kts | 348° |
| 2026-04-26 01:20 | 39.20802 | 116.43870 | 3490 ft | 228 kts | 352° |
| 2026-04-26 01:20 | 39.22368 | 116.43484 | 3488 ft | 227 kts | 354° |
| 2026-04-26 01:20 | 39.23938 | 116.43169 | 3488 ft | 227 kts | 356° |
| 2026-04-26 01:21 | 39.25506 | 116.42890 | 3488 ft | 227 kts | 356° |
| 2026-04-26 01:21 | 39.27078 | 116.42630 | 3491 ft | 228 kts | 356° |
| 2026-04-26 01:21 | 39.28645 | 116.42379 | 3492 ft | 227 kts | 356° |
| 2026-04-26 01:21 | 39.30226 | 116.42129 | 3492 ft | 225 kts | 356° |
| 2026-04-26 01:22 | 39.31763 | 116.41885 | 3286 ft | 219 kts | 356° |
| 2026-04-26 01:22 | 39.33276 | 116.41644 | 3018 ft | 217 kts | 357° |
| 2026-04-26 01:22 | 39.34762 | 116.41410 | 2745 ft | 216 kts | 356° |
| 2026-04-26 01:22 | 39.36249 | 116.41176 | 2467 ft | 213 kts | 356° |
| 2026-04-26 01:23 | 39.37684 | 116.40946 | 2204 ft | 199 kts | 357° |
| 2026-04-26 01:23 | 39.39003 | 116.40736 | 1953 ft | 184 kts | 357° |
| 2026-04-26 01:23 | 39.40239 | 116.40542 | 1725 ft | 172 kts | 357° |
| 2026-04-26 01:23 | 39.41388 | 116.40362 | 1505 ft | 160 kts | 357° |
| 2026-04-26 01:24 | 39.42432 | 116.40197 | 1297 ft | 145 kts | 358° |
| 2026-04-26 01:24 | 39.43428 | 116.40041 | 1099 ft | 140 kts | 357° |
| 2026-04-26 01:24 | 39.44392 | 116.39889 | 906 ft | 139 kts | 357° |
| 2026-04-26 01:24 | 39.45349 | 116.39738 | 715 ft | 138 kts | 356° |
| 2026-04-26 01:25 | 39.46309 | 116.39586 | 524 ft | 138 kts | 356° |
| 2026-04-26 01:25 | 39.47254 | 116.39438 | 324 ft | 137 kts | 356° |
| 2026-04-26 01:25 | 39.48202 | 116.39287 | 143 ft | 138 kts | 356° |
| 2026-04-26 01:25 | 39.49109 | 116.39147 | 97 ft | 115 kts | 352° |
| 2026-04-26 01:26 | 39.49746 | 116.39046 | 97 ft | 56 kts | 353° |
| 2026-04-26 01:26 | 39.50034 | 116.39058 | 97 ft | 27 kts | 18° |
| 2026-04-26 01:26 | 39.50187 | 116.39129 | 97 ft | 21 kts | 20° |
| 2026-04-26 01:26 | 39.50320 | 116.39173 | 97 ft | 19 kts | 1° |
| 2026-04-26 01:27 | 39.50447 | 116.39158 | 97 ft | 17 kts | 353° |
| 2026-04-26 01:27 | 39.50563 | 116.39140 | 97 ft | 16 kts | 353° |
| 2026-04-26 01:27 | 39.50673 | 116.39122 | 97 ft | 16 kts | 353° |
| 2026-04-26 01:27 | 39.50791 | 116.39140 | 97 ft | 18 kts | 20° |
| 2026-04-26 01:28 | 39.50841 | 116.39281 | 97 ft | 19 kts | 83° |
| 2026-04-26 01:28 | 39.50859 | 116.39465 | 97 ft | 21 kts | 83° |
| 2026-04-26 01:28 | 39.50877 | 116.39651 | 97 ft | 8 kts | 83° |
| 2026-04-26 01:28 | 39.50890 | 116.39788 | 97 ft | 22 kts | 83° |
| 2026-04-26 01:29 | 39.50908 | 116.39983 | 97 ft | 21 kts | 83° |
| 2026-04-26 01:29 | 39.50861 | 116.40095 | 97 ft | 15 kts | 170° |
| 2026-04-26 01:29 | 39.50753 | 116.40113 | 97 ft | 15 kts | 173° |
| 2026-04-26 01:29 | 39.50648 | 116.40130 | 97 ft | 14 kts | 173° |
| 2026-04-26 01:30 | 39.50545 | 116.40147 | 97 ft | 14 kts | 173° |
| 2026-04-26 01:30 | 39.50433 | 116.40164 | 97 ft | 17 kts | 173° |
| 2026-04-26 01:30 | 39.50298 | 116.40185 | 97 ft | 21 kts | 173° |
| 2026-04-26 01:30 | 39.50144 | 116.40211 | 97 ft | 22 kts | 164° |
| 2026-04-26 01:31 | 39.50124 | 116.40369 | 97 ft | 19 kts | 84° |
| 2026-04-26 01:31 | 39.50140 | 116.40551 | 97 ft | 21 kts | 83° |
| 2026-04-26 01:31 | 39.50159 | 116.40748 | 97 ft | 18 kts | 83° |
| 2026-04-26 01:31 | 39.50253 | 116.40807 | 97 ft | 18 kts | 354° |
| 2026-04-26 01:32 | 39.50388 | 116.40787 | 97 ft | 20 kts | 354° |
| 2026-04-26 01:32 | 39.50529 | 116.40808 | 97 ft | 21 kts | 23° |
| 2026-04-26 01:32 | 39.50655 | 116.40878 | 97 ft | 13 kts | 24° |
| 2026-04-26 01:32 | 39.50722 | 116.40951 | 97 ft | 8 kts | 58° |
| 2026-04-26 01:33 | 39.50740 | 116.40990 | 97 ft | 0 kts | 59° |